Time;durP1;ratioP1;P1;durP2;ratioP2;P2;SDS_P1;SDS_P2;PMS_P1;PMS_P2;Temp;Humidity;BMP_temperature;BMP_pressure;BME280_temperature;BME280_humidity;BME280_pressure;Samples;Min_cycle;Max_cycle;Signal;HPM_P1;HPM_P2
2024/04/05 00:01:21;;;;;;;5.90;2.90;;;21.80;87.20;;;;;;5065414;28;20477;-71
2024/04/05 00:03:48;;;;;;;6.80;3.40;;;21.80;87.30;;;;;;5064653;28;20448;-71
2024/04/05 00:06:13;;;;;;;5.80;3.10;;;21.80;87.50;;;;;;5065391;28;20193;-69
2024/04/05 00:08:42;;;;;;;8.53;3.93;;;21.70;87.50;;;;;;5065654;28;20948;-69
2024/04/05 00:11:08;;;;;;;7.43;3.47;;;21.70;87.60;;;;;;5065927;28;20221;-70
2024/04/05 00:13:35;;;;;;;7.50;3.57;;;21.60;87.60;;;;;;5065985;28;22440;-68
2024/04/05 00:16:04;;;;;;;6.70;3.83;;;21.60;87.70;;;;;;5066482;28;20563;-71
2024/04/05 00:18:34;;;;;;;5.80;3.30;;;21.60;88.00;;;;;;5064990;28;20490;-72
2024/04/05 00:21:00;;;;;;;5.77;3.27;;;21.50;87.90;;;;;;5064918;28;20538;-70
2024/04/05 00:23:27;;;;;;;5.90;2.97;;;21.50;88.10;;;;;;5066552;28;21504;-70
2024/04/05 00:25:58;;;;;;;6.10;3.40;;;21.50;88.20;;;;;;5063440;28;20481;-70
2024/04/05 00:28:25;;;;;;;4.93;3.00;;;21.40;88.10;;;;;;5067414;28;20455;-71
2024/04/05 00:30:51;;;;;;;7.10;3.37;;;21.40;88.40;;;;;;5066962;28;20454;-71
2024/04/05 00:33:17;;;;;;;5.70;3.20;;;21.40;89.30;;;;;;5067882;28;20467;-70
2024/04/05 00:35:47;;;;;;;3.67;2.60;;;21.30;88.50;;;;;;5065495;28;20225;-71
2024/04/05 00:38:14;;;;;;;4.77;2.70;;;21.30;88.70;;;;;;5068513;28;20811;-71
2024/04/05 00:40:40;;;;;;;7.37;3.50;;;21.30;88.90;;;;;;5069433;28;20451;-72
2024/04/05 00:43:08;;;;;;;7.80;3.50;;;21.30;88.90;;;;;;5066889;28;20451;-70
2024/04/05 00:45:34;;;;;;;7.83;3.73;;;21.30;89.70;;;;;;5066260;28;20201;-71
2024/04/05 00:48:01;;;;;;;3.27;2.73;;;21.20;89.00;;;;;;5067293;28;20447;-69
2024/04/05 00:50:30;;;;;;;5.87;2.87;;;21.20;89.10;;;;;;5065861;28;20460;-69
2024/04/05 00:52:58;;;;;;;7.20;3.23;;;21.20;89.20;;;;;;5064587;28;20448;-69
2024/04/05 00:55:24;;;;;;;5.87;3.70;;;21.20;89.40;;;;;;5067793;28;20456;-70
2024/04/05 00:57:51;;;;;;;6.73;3.20;;;21.10;89.30;;;;;;5064142;28;20976;-70
2024/04/05 01:00:20;;;;;;;5.97;2.97;;;21.10;89.50;;;;;;5066042;28;20456;-71
2024/04/05 01:02:47;;;;;;;5.90;2.90;;;21.10;89.60;;;;;;5065249;28;20540;-71
2024/04/05 01:05:14;;;;;;;7.73;4.00;;;21.10;89.80;;;;;;5065403;28;20460;-70
2024/04/05 01:07:41;;;;;;;3.80;2.33;;;21.00;89.70;;;;;;5065249;28;20812;-69
2024/04/05 01:10:07;;;;;;;8.13;3.57;;;21.00;89.80;;;;;;5063834;28;20448;-70
2024/04/05 01:12:34;;;;;;;6.77;3.30;;;21.00;89.90;;;;;;5067100;28;20451;-71
2024/04/05 01:14:59;;;;;;;4.70;2.22;;;21.00;90.00;;;;;;5061780;28;20470;-68
2024/04/05 01:17:27;;;;;;;4.17;2.47;;;20.90;90.00;;;;;;5065514;28;20218;-68
2024/04/05 01:19:54;;;;;;;5.33;3.10;;;20.90;90.10;;;;;;5065213;28;20211;-69
2024/04/05 01:22:28;;;;;;;4.90;3.30;;;20.90;90.10;;;;;;5065610;28;21042;-70
2024/04/05 01:24:55;;;;;;;4.93;2.77;;;20.90;90.20;;;;;;5063769;28;20484;-69
2024/04/05 01:27:21;;;;;;;3.60;2.30;;;20.80;90.20;;;;;;5066979;28;20570;-69
2024/04/05 01:29:47;;;;;;;5.40;3.13;;;20.80;90.20;;;;;;5064632;28;20460;-71
2024/04/05 01:32:14;;;;;;;3.70;2.33;;;20.80;90.30;;;;;;5064324;28;20199;-70
2024/04/05 01:34:39;;;;;;;5.35;3.17;;;20.80;90.30;;;;;;5061292;28;20209;-71
2024/04/05 01:37:06;;;;;;;5.20;2.60;;;20.70;90.30;;;;;;5062143;28;20221;-69
2024/04/05 01:39:34;;;;;;;4.68;2.50;;;20.70;90.40;;;;;;5067949;28;20201;-69
2024/04/05 01:42:02;;;;;;;4.38;2.25;;;20.70;90.40;;;;;;5066170;28;20233;-72
2024/04/05 01:44:27;;;;;;;3.65;2.40;;;20.70;90.50;;;;;;5065211;28;21411;-69
2024/04/05 01:46:54;;;;;;;2.63;1.77;;;20.60;90.50;;;;;;5066652;28;20190;-70
2024/04/05 01:49:20;;;;;;;3.75;2.60;;;20.60;90.50;;;;;;5064038;28;20193;-70
2024/04/05 01:51:46;;;;;;;4.20;2.57;;;20.60;90.60;;;;;;5065325;28;20201;-69
2024/04/05 01:54:12;;;;;;;4.80;2.30;;;20.60;90.60;;;;;;5062727;28;20191;-70
2024/04/05 01:56:39;;;;;;;3.93;2.53;;;20.60;90.60;;;;;;5062777;28;20221;-70
2024/04/05 01:59:07;;;;;;;3.67;2.75;;;20.60;90.70;;;;;;5068916;28;20197;-69
2024/04/05 02:01:35;;;;;;;5.28;2.20;;;20.60;90.70;;;;;;5072682;28;20300;-70
2024/04/05 02:04:00;;;;;;;8.52;3.10;;;20.50;90.70;;;;;;5074919;28;20206;-69
2024/04/05 02:06:27;;;;;;;3.90;2.10;;;20.50;90.80;;;;;;5069212;28;20765;-71
2024/04/05 02:08:53;;;;;;;5.80;3.17;;;20.50;90.80;;;;;;5071193;28;20202;-70
2024/04/05 02:11:19;;;;;;;4.17;2.77;;;20.50;90.90;;;;;;5072035;28;20199;-71
2024/04/05 02:13:45;;;;;;;4.22;2.00;;;20.50;90.90;;;;;;5069000;28;20205;-71
2024/04/05 02:16:15;;;;;;;3.03;2.20;;;20.50;90.90;;;;;;5067892;28;20218;-72
2024/04/05 02:18:40;;;;;;;3.90;2.55;;;20.40;90.90;;;;;;5073864;28;20209;-68
2024/04/05 02:21:07;;;;;;;4.23;2.30;;;20.40;90.90;;;;;;5068862;28;20194;-70
2024/04/05 02:23:33;;;;;;;4.47;2.90;;;20.40;91.00;;;;;;5067697;28;20202;-67
2024/04/05 02:25:59;;;;;;;5.53;2.43;;;20.40;91.00;;;;;;5065933;28;20646;-70
2024/04/05 02:28:25;;;;;;;4.93;2.42;;;20.40;91.00;;;;;;5067301;28;20202;-69
2024/04/05 02:30:52;;;;;;;6.97;2.73;;;20.40;91.10;;;;;;5065805;28;20202;-70
2024/04/05 02:33:19;;;;;;;5.47;2.08;;;20.40;91.10;;;;;;5063381;28;20198;-71
2024/04/05 02:35:46;;;;;;;4.90;2.70;;;20.30;91.30;;;;;;5065180;28;20202;-70
2024/04/05 02:38:12;;;;;;;3.95;2.55;;;20.30;91.10;;;;;;5063970;28;20194;-70
2024/04/05 02:40:38;;;;;;;3.50;2.40;;;20.30;91.20;;;;;;5063953;28;20194;-71
2024/04/05 02:43:04;;;;;;;2.67;2.13;;;20.30;91.30;;;;;;5064386;28;20197;-70
2024/04/05 02:45:31;;;;;;;5.70;2.78;;;20.30;91.30;;;;;;5068304;28;20189;-70
2024/04/05 02:47:57;;;;;;;4.40;3.05;;;20.20;91.30;;;;;;5068529;28;20289;-71
2024/04/05 02:50:25;;;;;;;3.90;3.30;;;20.20;91.30;;;;;;5063480;28;21304;-70
2024/04/05 02:52:50;;;;;;;5.13;2.47;;;20.20;91.40;;;;;;5062828;28;20194;-69
2024/04/05 02:55:17;;;;;;;5.20;2.50;;;20.20;91.40;;;;;;5063385;28;20199;-69
2024/04/05 02:57:43;;;;;;;4.85;2.65;;;20.20;91.40;;;;;;5065040;28;20233;-70
2024/04/05 03:00:11;;;;;;;6.07;3.80;;;20.20;91.50;;;;;;5062341;28;20914;-70
2024/04/05 03:02:37;;;;;;;4.72;2.42;;;20.10;91.50;;;;;;5064419;28;20930;-69
2024/04/05 03:05:04;;;;;;;4.37;2.80;;;20.10;91.90;;;;;;5063640;28;20264;-70
2024/04/05 03:07:31;;;;;;;3.45;2.45;;;20.10;91.90;;;;;;5064682;28;20456;-70
2024/04/05 03:09:57;;;;;;;3.97;2.97;;;20.10;91.60;;;;;;5063340;28;20206;-71
2024/04/05 03:12:23;;;;;;;3.75;2.00;;;20.10;91.60;;;;;;5061521;28;20678;-70
2024/04/05 03:14:53;;;;;;;4.50;2.37;;;20.10;91.70;;;;;;5064092;28;20190;-70
2024/04/05 03:17:19;;;;;;;5.38;1.75;;;20.00;91.70;;;;;;5059811;28;20218;-69
2024/04/05 03:19:46;;;;;;;5.05;2.78;;;20.00;91.70;;;;;;5063732;28;20225;-69
2024/04/05 03:22:12;;;;;;;4.50;2.47;;;20.00;91.80;;;;;;5063649;28;20198;-70
2024/04/05 03:24:40;;;;;;;3.23;2.53;;;20.00;91.80;;;;;;5067200;28;20666;-68
2024/04/05 03:27:06;;;;;;;4.35;2.35;;;20.00;91.90;;;;;;5063213;28;20241;-73
2024/04/05 03:29:33;;;;;;;2.90;1.97;;;20.00;91.90;;;;;;5065819;28;20190;-71
2024/04/05 03:31:59;;;;;;;4.07;2.35;;;19.90;91.90;;;;;;5063277;28;20444;-70
2024/04/05 03:34:26;;;;;;;3.30;2.30;;;19.90;91.90;;;;;;5066129;28;20670;-70
2024/04/05 03:36:51;;;;;;;4.45;2.25;;;19.90;92.00;;;;;;5064077;28;20225;-70
2024/04/05 03:39:18;;;;;;;5.93;2.90;;;19.90;92.00;;;;;;5065650;28;20562;-69
2024/04/05 03:41:46;;;;;;;6.25;2.92;;;19.90;92.40;;;;;;5066164;28;20416;-69
2024/04/05 03:44:12;;;;;;;5.93;2.35;;;19.90;92.10;;;;;;5063171;28;20190;-69
2024/04/05 03:46:39;;;;;;;5.67;2.90;;;19.90;92.10;;;;;;5064800;28;20205;-70
2024/04/05 03:49:08;;;;;;;4.63;2.22;;;19.90;92.10;;;;;;5061334;28;20198;-71
2024/04/05 03:51:34;;;;;;;3.85;2.70;;;19.90;92.20;;;;;;5063503;28;20206;-70
2024/04/05 03:54:00;;;;;;;5.57;2.57;;;19.80;92.20;;;;;;5064869;28;20194;-70
2024/04/05 03:56:26;;;;;;;3.95;2.60;;;19.80;92.20;;;;;;5062468;28;20217;-69
2024/04/05 03:58:54;;;;;;;2.53;1.47;;;19.80;92.20;;;;;;5063667;28;20201;-69
2024/04/05 04:01:20;;;;;;;3.65;2.17;;;19.80;92.20;;;;;;5062186;28;20200;-71
2024/04/05 04:03:47;;;;;;;2.77;1.67;;;19.80;92.30;;;;;;5065583;28;20194;-70
2024/04/05 04:06:12;;;;;;;3.85;1.75;;;19.80;92.30;;;;;;5061297;28;20193;-70
2024/04/05 04:08:39;;;;;;;4.00;2.40;;;19.80;92.30;;;;;;5064335;28;20201;-68
2024/04/05 04:11:05;;;;;;;2.95;1.70;;;19.70;92.30;;;;;;5063077;28;20197;-70
2024/04/05 04:13:32;;;;;;;4.23;2.53;;;19.70;92.30;;;;;;5062625;28;20204;-70
2024/04/05 04:15:59;;;;;;;5.80;2.15;;;19.80;92.40;;;;;;5060884;28;20468;-68
2024/04/05 04:18:26;;;;;;;3.40;2.10;;;19.70;92.40;;;;;;5063791;28;20205;-70
2024/04/05 04:20:54;;;;;;;4.55;2.35;;;19.70;92.40;;;;;;5061081;28;20375;-70
2024/04/05 04:23:20;;;;;;;3.13;2.10;;;19.70;92.40;;;;;;5063299;28;20201;-69
2024/04/05 04:25:46;;;;;;;2.70;1.55;;;19.70;92.50;;;;;;5057675;28;20854;-71
2024/04/05 04:28:13;;;;;;;5.10;2.37;;;19.70;92.50;;;;;;5060497;28;20201;-69
2024/04/05 04:30:38;;;;;;;2.80;1.77;;;19.70;92.50;;;;;;5064114;28;20456;-68
2024/04/05 04:33:06;;;;;;;4.10;2.60;;;19.70;92.50;;;;;;5062916;28;20186;-70
2024/04/05 04:35:32;;;;;;;2.25;1.73;;;19.60;92.50;;;;;;5063919;28;20210;-70
2024/04/05 04:37:59;;;;;;;2.67;1.80;;;19.60;92.60;;;;;;5061089;28;20646;-71
2024/04/05 04:40:25;;;;;;;2.97;2.05;;;19.60;92.60;;;;;;5058350;28;20206;-70
2024/04/05 04:42:51;;;;;;;2.80;2.20;;;19.60;92.60;;;;;;5060003;28;21074;-71
2024/04/05 04:45:17;;;;;;;4.30;2.30;;;19.60;92.60;;;;;;5062923;28;20197;-69
2024/04/05 04:47:44;;;;;;;5.30;2.30;;;19.60;92.70;;;;;;5061467;28;20208;-69
2024/04/05 04:50:11;;;;;;;2.88;2.10;;;19.60;92.70;;;;;;5062630;28;20209;-71
2024/04/05 04:52:38;;;;;;;3.17;2.25;;;19.60;92.70;;;;;;5063990;28;20198;-68
2024/04/05 04:55:05;;;;;;;3.35;1.50;;;19.50;92.70;;;;;;5061204;28;20282;-70
2024/04/05 04:57:33;;;;;;;5.03;1.92;;;19.50;92.70;;;;;;5066360;28;20307;-70
2024/04/05 04:59:59;;;;;;;3.88;2.28;;;19.50;92.70;;;;;;5063054;28;20244;-68
2024/04/05 05:02:25;;;;;;;3.40;1.60;;;19.50;92.80;;;;;;5059252;28;20299;-68
2024/04/05 05:04:51;;;;;;;3.22;1.88;;;19.50;92.80;;;;;;5061677;28;20638;-71
2024/04/05 05:07:19;;;;;;;6.07;2.60;;;19.50;92.80;;;;;;5060468;28;20194;-69
2024/04/05 05:09:45;;;;;;;3.40;1.65;;;19.50;92.90;;;;;;5063856;28;20241;-70
2024/04/05 05:12:11;;;;;;;3.60;2.13;;;19.50;92.90;;;;;;5061819;28;20204;-68
2024/04/05 05:14:37;;;;;;;4.75;2.30;;;19.50;92.90;;;;;;5061533;28;20201;-68
2024/04/05 05:17:05;;;;;;;3.33;2.10;;;19.50;92.90;;;;;;5061803;28;20205;-71
2024/04/05 05:19:31;;;;;;;3.47;2.00;;;19.50;92.90;;;;;;5063684;28;20560;-71
2024/04/05 05:21:57;;;;;;;2.93;2.00;;;19.50;93.00;;;;;;5063763;28;21139;-70
2024/04/05 05:24:24;;;;;;;4.32;2.00;;;19.50;93.00;;;;;;5062547;28;20202;-71
2024/04/05 05:26:51;;;;;;;4.15;1.90;;;19.40;92.90;;;;;;5062588;28;20214;-68
2024/04/05 05:29:17;;;;;;;3.35;2.03;;;19.40;93.00;;;;;;5062994;28;20201;-70
2024/04/05 05:31:43;;;;;;;2.63;1.73;;;19.40;93.00;;;;;;5063515;28;20197;-71
2024/04/05 05:34:09;;;;;;;2.67;1.90;;;19.40;93.00;;;;;;5064337;28;20198;-70
2024/04/05 05:36:36;;;;;;;2.70;2.00;;;19.40;93.00;;;;;;5067283;28;20217;-71
2024/04/05 05:39:03;;;;;;;2.60;2.00;;;19.40;93.00;;;;;;5067647;28;20193;-72
2024/04/05 05:41:31;;;;;;;2.80;1.50;;;19.40;93.00;;;;;;5069340;28;20539;-69
2024/04/05 05:43:56;;;;;;;3.40;1.98;;;19.40;93.10;;;;;;5067273;28;20213;-70
2024/04/05 05:46:23;;;;;;;3.67;1.83;;;19.40;93.10;;;;;;5063143;28;20202;-69
2024/04/05 05:48:49;;;;;;;2.45;1.63;;;19.40;93.10;;;;;;5068372;28;20228;-70
2024/04/05 05:51:15;;;;;;;3.43;2.37;;;19.40;93.10;;;;;;5069110;28;20193;-70
2024/04/05 05:53:41;;;;;;;3.05;1.80;;;19.40;93.10;;;;;;5068417;28;20201;-69
2024/04/05 05:56:08;;;;;;;4.77;2.03;;;19.30;93.10;;;;;;5068064;28;20201;-70
2024/04/05 05:58:35;;;;;;;4.00;1.85;;;19.30;93.10;;;;;;5068391;28;20231;-71
2024/04/05 06:01:06;;;;;;;3.92;2.33;;;19.30;93.20;;;;;;5065645;28;20220;-70
2024/04/05 06:03:32;;;;;;;2.83;1.70;;;19.30;93.20;;;;;;5062453;28;20712;-71
2024/04/05 06:06:00;;;;;;;4.68;2.30;;;19.30;93.20;;;;;;5061111;28;20646;-71
2024/04/05 06:08:26;;;;;;;3.05;1.40;;;19.30;93.30;;;;;;5058358;28;20198;-71
2024/04/05 06:10:56;;;;;;;3.13;1.70;;;19.30;93.20;;;;;;5064217;28;20985;-71
2024/04/05 06:13:23;;;;;;;3.50;1.92;;;19.30;93.20;;;;;;5063471;28;20233;-72
2024/04/05 06:15:57;;;;;;;2.92;1.80;;;19.30;92.80;;;;;;5063442;28;20198;-73
2024/04/05 06:18:25;;;;;;;3.85;1.85;;;19.30;92.70;;;;;;5062807;28;20213;-72
2024/04/05 06:20:55;;;;;;;7.72;2.50;;;19.30;92.70;;;;;;5064433;28;20788;-73
2024/04/05 06:23:20;;;;;;;3.03;2.40;;;19.30;92.60;;;;;;5065651;28;20193;-72
2024/04/05 06:25:58;;;;;;;3.20;1.80;;;19.30;92.60;;;;;;5060656;28;20425;-72
2024/04/05 06:28:24;;;;;;;4.07;2.25;;;19.20;92.60;;;;;;5064547;28;20447;-72
2024/04/05 06:30:51;;;;;;;4.10;2.20;;;19.20;92.60;;;;;;5063369;28;20275;-73
2024/04/05 06:33:18;;;;;;;4.70;1.95;;;19.20;92.70;;;;;;5065272;28;21004;-72
2024/04/05 06:35:45;;;;;;;3.97;2.05;;;19.20;92.80;;;;;;5064053;28;20206;-72
2024/04/05 06:38:11;;;;;;;2.65;1.70;;;19.20;92.90;;;;;;5064262;28;20221;-72
2024/04/05 06:40:39;;;;;;;4.93;2.23;;;19.20;93.20;;;;;;5065243;28;20816;-73
2024/04/05 06:43:06;;;;;;;3.35;1.95;;;19.40;93.10;;;;;;5060481;28;20230;-73
2024/04/05 06:45:33;;;;;;;2.55;1.80;;;19.60;92.90;;;;;;5066943;28;20194;-72
2024/04/05 06:48:01;;;;;;;3.45;2.47;;;19.70;92.80;;;;;;5068176;28;20650;-73
2024/04/05 06:50:31;;;;;;;3.17;1.90;;;19.60;92.90;;;;;;5068120;28;20200;-73
2024/04/05 06:52:58;;;;;;;3.15;1.77;;;19.70;93.10;;;;;;5069690;28;20201;-72
2024/04/05 06:55:26;;;;;;;4.70;2.00;;;19.70;93.00;;;;;;5069852;28;20197;-72
2024/04/05 06:57:52;;;;;;;3.05;2.20;;;19.80;93.00;;;;;;5067709;28;20601;-71
2024/04/05 07:00:19;;;;;;;4.80;2.53;;;19.90;92.90;;;;;;5066215;28;20554;-75
2024/04/05 07:02:45;;;;;;;3.92;1.83;;;20.10;92.80;;;;;;5063870;28;20210;-72
2024/04/05 07:05:12;;;;;;;6.73;2.70;;;20.20;92.50;;;;;;5061466;28;20700;-73
2024/04/05 07:07:39;;;;;;;2.93;1.67;;;20.30;92.40;;;;;;5065530;28;20454;-73
2024/04/05 07:10:07;;;;;;;3.87;2.27;;;20.40;92.20;;;;;;5063764;28;20892;-73
2024/04/05 07:12:33;;;;;;;2.93;1.87;;;20.50;92.20;;;;;;5063251;28;20477;-73
2024/04/05 07:15:00;;;;;;;2.07;1.40;;;20.50;92.10;;;;;;5066542;28;21484;-72
2024/04/05 07:17:25;;;;;;;3.10;2.07;;;20.50;92.00;;;;;;5065062;28;20213;-73
2024/04/05 07:19:52;;;;;;;2.60;2.20;;;20.40;92.00;;;;;;5063992;28;20448;-73
2024/04/05 07:22:19;;;;;;;2.40;1.60;;;20.50;91.90;;;;;;5064668;28;20667;-73
2024/04/05 07:24:47;;;;;;;3.80;2.00;;;20.60;91.80;;;;;;5066081;28;20455;-73
2024/04/05 07:27:13;;;;;;;6.47;2.07;;;20.70;91.70;;;;;;5061452;28;20459;-73
2024/04/05 07:29:43;;;;;;;4.23;2.50;;;20.80;91.50;;;;;;5062341;28;21216;-73
2024/04/05 07:32:09;;;;;;;3.43;1.80;;;20.80;91.50;;;;;;5066560;28;21182;-73
2024/04/05 07:34:36;;;;;;;2.97;1.53;;;20.90;91.40;;;;;;5064734;28;20457;-73
2024/04/05 07:37:02;;;;;;;4.30;2.43;;;20.90;91.30;;;;;;5063391;28;20213;-76
2024/04/05 07:39:29;;;;;;;4.23;2.30;;;21.00;91.30;;;;;;5065092;28;20467;-73
2024/04/05 07:41:56;;;;;;;3.70;1.80;;;21.00;91.10;;;;;;5064822;28;20217;-73
2024/04/05 07:44:23;;;;;;;4.93;1.70;;;21.00;91.10;;;;;;5064970;28;21179;-71
2024/04/05 07:46:48;;;;;;;3.97;1.73;;;21.00;91.00;;;;;;5064162;28;20973;-72
2024/04/05 07:49:15;;;;;;;3.37;2.10;;;21.10;90.80;;;;;;5064204;28;20452;-74
2024/04/05 07:51:41;;;;;;;2.37;1.70;;;21.10;90.70;;;;;;5062819;28;20207;-70
2024/04/05 07:54:08;;;;;;;2.43;1.87;;;21.10;90.60;;;;;;5064199;28;20440;-71
2024/04/05 07:56:34;;;;;;;3.70;2.20;;;21.10;90.50;;;;;;5065456;28;20673;-71
2024/04/05 07:59:02;;;;;;;2.40;2.00;;;21.10;90.40;;;;;;5065059;28;20474;-73
2024/04/05 08:01:28;;;;;;;4.20;2.43;;;21.20;90.40;;;;;;5062253;28;20214;-73
2024/04/05 08:03:54;;;;;;;4.30;1.70;;;21.20;90.30;;;;;;5064280;28;20448;-73
2024/04/05 08:06:20;;;;;;;2.90;1.60;;;21.30;90.40;;;;;;5061041;28;20690;-73
2024/04/05 08:08:47;;;;;;;3.87;1.90;;;21.30;90.70;;;;;;5065032;28;20448;-74
2024/04/05 08:11:13;;;;;;;2.47;1.60;;;21.30;90.30;;;;;;5062306;28;20452;-74
2024/04/05 08:13:39;;;;;;;4.43;2.20;;;21.30;90.20;;;;;;5063282;28;20454;-71
2024/04/05 08:16:07;;;;;;;2.70;1.83;;;21.30;90.20;;;;;;5061557;28;20208;-71
2024/04/05 08:18:34;;;;;;;4.70;2.07;;;21.40;90.20;;;;;;5064742;28;20475;-69
2024/04/05 08:21:03;;;;;;;2.97;1.90;;;21.40;90.00;;;;;;5064630;28;20456;-71
2024/04/05 08:23:30;;;;;;;2.80;2.00;;;21.50;89.90;;;;;;5065683;28;20897;-71
2024/04/05 08:25:55;;;;;;;2.17;1.87;;;21.50;89.50;;;;;;5064970;28;20456;-72
2024/04/05 08:28:22;;;;;;;6.00;1.90;;;21.50;89.20;;;;;;5061268;28;20459;-71
2024/04/05 08:30:50;;;;;;;4.63;1.80;;;21.50;88.80;;;;;;5063900;28;20209;-70
2024/04/05 08:33:19;;;;;;;3.50;1.87;;;21.60;88.50;;;;;;5060524;28;20993;-72
2024/04/05 08:35:50;;;;;;;5.77;2.67;;;21.60;88.20;;;;;;5064351;28;20557;-71
2024/04/05 08:38:17;;;;;;;2.30;1.50;;;21.70;87.90;;;;;;5064391;28;22830;-73
2024/04/05 08:40:42;;;;;;;3.30;1.80;;;21.70;87.60;;;;;;5066548;28;20452;-71
2024/04/05 08:43:10;;;;;;;2.50;1.83;;;21.70;87.30;;;;;;5063992;28;20456;-71
2024/04/05 08:45:36;;;;;;;2.20;1.37;;;21.80;87.00;;;;;;5061911;28;20201;-71
2024/04/05 08:48:05;;;;;;;3.27;1.90;;;21.80;86.80;;;;;;5063330;28;20444;-71
2024/04/05 08:50:33;;;;;;;2.73;1.80;;;21.80;86.40;;;;;;5064175;28;20448;-71
2024/04/05 08:53:00;;;;;;;2.13;1.57;;;21.90;86.10;;;;;;5065870;28;20458;-71
2024/04/05 08:55:26;;;;;;;2.50;1.80;;;21.90;85.90;;;;;;5065048;28;21206;-71
2024/04/05 08:57:53;;;;;;;2.20;1.73;;;22.00;85.70;;;;;;5059396;28;20475;-72
2024/04/05 09:00:23;;;;;;;3.30;1.40;;;22.00;85.30;;;;;;5065309;28;20205;-72
2024/04/05 09:02:51;;;;;;;3.60;2.30;;;22.00;85.40;;;;;;5067704;28;20444;-72
2024/04/05 09:05:17;;;;;;;3.07;1.90;;;22.00;85.60;;;;;;5063935;28;20568;-74
2024/04/05 09:07:46;;;;;;;3.13;1.80;;;22.10;85.30;;;;;;5066485;28;20551;-73
2024/04/05 09:10:14;;;;;;;5.50;2.17;;;22.10;85.60;;;;;;5066835;28;20460;-71
2024/04/05 09:12:48;;;;;;;2.67;2.10;;;22.10;85.90;;;;;;5064339;28;20598;-72
2024/04/05 09:15:18;;;;;;;3.23;1.63;;;22.20;85.70;;;;;;5068204;28;20530;-72
2024/04/05 09:17:46;;;;;;;2.50;1.50;;;22.20;85.20;;;;;;5063078;28;20483;-72
2024/04/05 09:20:19;;;;;;;2.87;1.93;;;22.20;85.40;;;;;;5060856;28;20465;-71
2024/04/05 09:22:48;;;;;;;1.87;1.70;;;22.20;85.00;;;;;;5062682;28;20440;-72
2024/04/05 09:25:16;;;;;;;2.47;1.60;;;22.20;84.70;;;;;;5058148;28;20449;-72
2024/04/05 09:27:43;;;;;;;3.00;1.43;;;22.20;84.60;;;;;;5059387;28;20440;-72
2024/04/05 09:30:09;;;;;;;2.03;1.47;;;22.30;84.50;;;;;;5062671;28;21163;-71
2024/04/05 09:32:36;;;;;;;2.33;1.60;;;22.30;84.90;;;;;;5058146;28;20454;-72
2024/04/05 09:35:06;;;;;;;2.07;1.60;;;22.30;84.10;;;;;;5060997;28;20509;-73
2024/04/05 09:37:34;;;;;;;2.87;1.67;;;22.30;83.90;;;;;;5061919;28;20552;-72
2024/04/05 09:40:04;;;;;;;3.23;1.80;;;22.30;83.70;;;;;;5061096;28;20463;-71
2024/04/05 09:42:32;;;;;;;3.10;1.80;;;22.40;83.70;;;;;;5061503;28;20459;-72
2024/04/05 09:45:01;;;;;;;2.37;1.37;;;22.40;83.50;;;;;;5060938;28;20908;-72
2024/04/05 09:47:29;;;;;;;2.73;1.83;;;22.40;83.30;;;;;;5057024;28;20455;-71
2024/04/05 09:49:57;;;;;;;1.97;1.33;;;22.40;83.10;;;;;;5061918;28;20551;-72
2024/04/05 09:52:33;;;;;;;3.57;1.83;;;22.40;82.90;;;;;;5060130;28;20458;-74
2024/04/05 09:55:05;;;;;;;3.20;1.70;;;22.50;83.10;;;;;;5059831;28;20495;-71
2024/04/05 09:57:32;;;;;;;2.17;1.60;;;22.50;83.50;;;;;;5061681;28;20480;-72
2024/04/05 09:59:59;;;;;;;3.90;1.60;;;22.50;83.50;;;;;;5063979;28;20455;-71
2024/04/05 10:02:26;;;;;;;2.73;1.60;;;22.50;83.40;;;;;;5064150;28;20452;-72
2024/04/05 10:04:53;;;;;;;1.77;1.33;;;22.50;83.30;;;;;;5062634;28;20554;-73
2024/04/05 10:07:25;;;;;;;2.70;1.70;;;22.60;83.30;;;;;;5060750;28;20455;-71
2024/04/05 10:09:52;;;;;;;2.60;1.57;;;22.60;83.20;;;;;;5058621;28;20534;-74
2024/04/05 10:12:22;;;;;;;1.80;1.30;;;22.60;83.20;;;;;;5060184;28;20460;-72
2024/04/05 10:14:55;;;;;;;2.63;1.53;;;22.70;83.00;;;;;;5065523;28;21039;-72
2024/04/05 10:17:27;;;;;;;2.70;1.70;;;22.70;82.70;;;;;;5062241;28;25084;-72
2024/04/05 10:20:03;;;;;;;2.30;1.60;;;22.70;82.90;;;;;;5064846;28;20450;-73
2024/04/05 10:22:29;;;;;;;2.23;1.40;;;22.80;82.80;;;;;;5064992;28;20978;-70
2024/04/05 10:24:56;;;;;;;2.40;1.60;;;22.80;82.80;;;;;;5067919;28;20497;-71
2024/04/05 10:27:24;;;;;;;1.90;1.17;;;22.80;82.70;;;;;;5064940;28;20621;-72
2024/04/05 10:29:59;;;;;;;2.37;1.70;;;22.80;82.60;;;;;;5066056;28;20686;-71
2024/04/05 10:32:24;;;;;;;1.80;1.30;;;22.90;82.50;;;;;;5066338;28;20454;-72
2024/04/05 10:34:51;;;;;;;1.90;1.57;;;22.90;82.50;;;;;;5068641;28;21065;-70
2024/04/05 10:37:17;;;;;;;2.90;1.33;;;22.90;82.60;;;;;;5066838;28;20555;-72
2024/04/05 10:39:44;;;;;;;1.73;1.43;;;22.90;82.30;;;;;;5068918;28;20451;-71
2024/04/05 10:42:10;;;;;;;3.60;1.73;;;23.00;82.50;;;;;;5066122;28;20254;-72
2024/04/05 10:44:38;;;;;;;3.33;1.80;;;23.00;82.00;;;;;;5068888;28;20451;-72
2024/04/05 10:47:09;;;;;;;3.30;1.60;;;23.00;82.50;;;;;;5066118;28;20782;-71
2024/04/05 10:49:35;;;;;;;2.03;1.50;;;23.00;82.40;;;;;;5067326;28;20439;-73
2024/04/05 10:52:02;;;;;;;1.83;1.33;;;23.00;82.20;;;;;;5064814;28;20462;-72
2024/04/05 10:54:29;;;;;;;2.27;1.33;;;23.00;82.30;;;;;;5069269;28;20818;-72
2024/04/05 10:57:01;;;;;;;1.80;1.50;;;23.10;82.40;;;;;;5063832;28;20459;-72
2024/04/05 10:59:28;;;;;;;2.53;1.63;;;23.10;82.30;;;;;;5067381;28;20467;-73
2024/04/05 11:01:55;;;;;;;2.23;1.30;;;23.10;82.10;;;;;;5066772;28;20533;-71
2024/04/05 11:04:24;;;;;;;2.07;1.77;;;23.20;82.20;;;;;;5064703;28;20485;-72
2024/04/05 11:06:59;;;;;;;1.87;1.20;;;23.20;82.00;;;;;;5061615;28;20488;-72
2024/04/05 11:09:33;;;;;;;1.80;1.40;;;23.20;82.00;;;;;;5065599;28;20462;-72
2024/04/05 11:11:59;;;;;;;3.30;1.50;;;23.20;82.00;;;;;;5067895;28;20497;-71
2024/04/05 11:14:27;;;;;;;1.70;1.10;;;23.20;82.00;;;;;;5066692;28;20460;-69
2024/04/05 11:16:59;;;;;;;2.20;1.67;;;23.30;82.10;;;;;;5060768;28;20451;-71
2024/04/05 11:19:27;;;;;;;2.37;1.10;;;23.30;82.10;;;;;;5063296;28;20597;-70
2024/04/05 11:21:53;;;;;;;1.70;1.30;;;23.30;82.00;;;;;;5064434;28;20488;-72
2024/04/05 11:24:20;;;;;;;2.03;1.47;;;23.30;81.90;;;;;;5064908;28;20455;-73
2024/04/05 11:26:50;;;;;;;1.23;0.97;;;23.30;81.80;;;;;;5063223;28;20471;-72
2024/04/05 11:29:18;;;;;;;1.40;1.10;;;23.30;81.80;;;;;;5052489;28;21499;-71
2024/04/05 11:31:44;;;;;;;2.23;1.37;;;23.30;81.70;;;;;;5064272;28;21455;-72
2024/04/05 11:34:12;;;;;;;2.33;1.03;;;23.30;81.60;;;;;;5065645;28;20440;-71
2024/04/05 11:36:37;;;;;;;2.70;1.30;;;23.30;81.70;;;;;;5065785;28;20905;-73
2024/04/05 11:39:05;;;;;;;2.47;1.03;;;23.30;81.50;;;;;;5065718;28;20488;-72
2024/04/05 11:41:30;;;;;;;1.93;1.43;;;23.30;81.70;;;;;;5067228;28;20206;-74
2024/04/05 11:43:57;;;;;;;2.20;1.53;;;23.30;81.60;;;;;;5065354;28;20448;-73
2024/04/05 11:46:24;;;;;;;1.90;1.63;;;23.30;81.50;;;;;;5065013;28;20213;-72
2024/04/05 11:48:51;;;;;;;1.73;1.07;;;23.30;81.40;;;;;;5067870;28;20821;-71
2024/04/05 11:51:19;;;;;;;2.53;1.40;;;23.30;81.20;;;;;;5059199;28;20464;-72
2024/04/05 11:53:46;;;;;;;1.63;1.20;;;23.30;81.10;;;;;;5065809;28;20546;-72
2024/04/05 11:56:11;;;;;;;2.10;1.37;;;23.40;81.00;;;;;;5064446;28;20463;-72
2024/04/05 11:58:38;;;;;;;2.10;1.27;;;23.40;80.90;;;;;;5066856;28;21046;-72
2024/04/05 12:01:04;;;;;;;4.67;1.90;;;23.40;80.90;;;;;;5067114;28;20221;-72
2024/04/05 12:03:31;;;;;;;1.40;1.00;;;23.40;81.00;;;;;;4882357;28;20440;-71
2024/04/05 12:05:56;;;;;;;1.67;1.30;;;23.40;81.10;;;;;;4912187;28;20209;-70
2024/04/05 12:08:24;;;;;;;1.60;1.10;;;23.40;81.20;;;;;;4907395;28;21070;-71
2024/04/05 12:10:51;;;;;;;6.00;1.30;;;23.40;81.20;;;;;;4915118;28;20216;-74
2024/04/05 12:13:17;;;;;;;2.93;1.50;;;23.40;81.40;;;;;;4920889;28;21349;-72
2024/04/05 12:15:43;;;;;;;2.00;1.20;;;23.40;81.40;;;;;;4925981;28;20459;-76
2024/04/05 12:18:10;;;;;;;2.07;1.47;;;23.40;81.20;;;;;;4987385;28;20480;-72
2024/04/05 12:20:36;;;;;;;2.00;1.23;;;23.40;81.30;;;;;;5057893;28;20211;-76
2024/04/05 12:23:03;;;;;;;2.30;1.40;;;23.40;81.00;;;;;;5063538;28;20448;-77
2024/04/05 12:25:30;;;;;;;1.70;1.40;;;23.50;81.20;;;;;;5067612;28;20229;-75
2024/04/05 12:27:57;;;;;;;1.87;1.10;;;23.50;81.10;;;;;;5064625;28;20461;-76
2024/04/05 12:30:23;;;;;;;2.90;1.00;;;23.50;81.10;;;;;;5067386;28;20543;-76
2024/04/05 12:32:49;;;;;;;1.90;1.40;;;23.50;81.10;;;;;;5068512;28;20539;-77
2024/04/05 12:35:16;;;;;;;1.63;1.30;;;23.50;81.20;;;;;;5066371;28;20210;-76
2024/04/05 12:37:43;;;;;;;2.90;1.53;;;23.50;81.20;;;;;;5069902;28;20448;-76
2024/04/05 12:40:17;;;;;;;1.77;1.27;;;23.50;81.20;;;;;;5070844;28;20937;-75
2024/04/05 12:42:45;;;;;;;2.43;1.10;;;23.50;81.10;;;;;;5066913;28;20546;-75
2024/04/05 12:45:12;;;;;;;1.70;1.00;;;23.50;81.10;;;;;;5070718;28;20459;-76
2024/04/05 12:47:39;;;;;;;3.60;1.30;;;23.50;81.10;;;;;;5068679;28;21092;-76